Huvudsida
METAR-TAF:

METAR-TAF

Flygplatser :

Oslo flygplats. Gardermoen

Oslo, Norge

latitud: 60-12N, longitud: 011-05E, höjd: 208 m

Aktuellt väderrapport

Denna rapport gjordes för 35 minuter sedan, klockan 09:20 UTC
Vind 7 kt från väst/sydväst, varierande mellan syd och väst
Temperatur 18°C
Fuktighet 45%
Tryck 1010 hPa
Sikt 10 km eller mer
Få moln på en höjd av 4500 ft

METAR: ENGM 190920Z 24007KT 190V280 9999 FEW045 18/06 Q1010 NOSIG

Tid: 11:55 (09:55 UTC)

Väderprognos

Prognos gäller från 19 kl. 06 UTC till 20 kl. 06 UTC
Vind 5 kt från väst/sydväst
Sikt 10 km eller mer
Inga moln under 1 500 m eller inga cumulonimbus
Blir
från 19 kl. 14 UTC till 19 kl. 16 UTC
Vind 10 kt från syd
Blir
från 19 kl. 20 UTC till 19 kl. 22 UTC
Vind 5 kt från nord/nordost

TAF: ENGM 1906/2006 25005KT CAVOK BECMG 1914/1916 18010KT BECMG 1920/1922 02005KT

Aktuella väderrapporter och prognoser från 4000 flygplatser (METAR- och TAF-rapporter).

De tillgängliga stationerna syns som gula och röda prickar på kartan.

För musen över prickarna för att se namnen på stationerna.

Klicka sedan för att få väderrapporter och prognoser.

För att ändra kartan: Klicka på de gröna knapparna med ett svart kors på för att zooma in; den gröna knappen med ett streck på för att zooma ut; eller på de gröna pilarna för angränsande kartor.


METAR-TAF: